Schnee/Eis Gültig von: 22-01-2021 21:00 bis: 23-01-2021 09:00 Warnung für: Schnee/Eis Gefahrenstufe: Gelb info button

Besuchen Sie unsere anderen Wetter Stationen:

Template documentation
and downloads

And another site



METAR-Meldungen aus der Umgebung


Warning: A non-numeric value encountered in /is/htdocs/wp10906056_0YHW7Q9XB7/www/weather28/metar/metarDisplay.php on line 166
   
EHVK - Volkel Rnlafb, Netherlands
Entfernung von der Station bis: SW 18 km
Aktualisierung: 22-01-2021 23:25
Bewölkt  
Bewölkt  
   Wind: SW 5.6 km/h
Wind: SW 5.6 km/h
Temperatur: 1°C
Gefühlt: -1°C
Taupunkt: 0°C
Luftfeuchte: 93%
Luftdruck: 996 hPa
Bewölkt: Bewölkt
Sichtbarkeit: More than 10 km
Bewölkung: Bewölkt 5791.2 m
EHVK 222225Z AUTO 22003KT 190V270 9999 OVC190 01/M00 Q0996 BLU
EDLV - Niederrhein, Germany
Entfernung von der Station bis: SO 25 km
Aktualisierung: 22-01-2021 23:20
Klar  
Klar  
   Wind: Süden 7.4 km/h
Wind: Süden 7.4 km/h
Temperatur: 1°C
Gefühlt: -1°C
Taupunkt: 0°C
Luftfeuchte: 93%
Luftdruck: 997 hPa
Sichtbarkeit: More than 10 km
Bewölkung: Klar
EDLV 222220Z 18004KT CAVOK 01/M00 Q0997
EHDL - Deelen Rnlafb, Netherlands
Entfernung von der Station bis: N 35 km
Aktualisierung: 22-01-2021 23:25
Nebel, Bewölkt  
Nebel, Bewölkt  
   Wind: Süden 5.6 km/h
Wind: Süden 5.6 km/h
Temperatur: 0°C
Gefühlt: -2°C
Taupunkt: 0°C
Luftfeuchte: 100%
Luftdruck: 996 hPa
Bewölkt: Bewölkt
Sichtbarkeit: 9 km
Bewölkung: Bewölkt 5791.2 m
EHDL 222225Z AUTO 17003KT 090V160 9000 BR OVC190 00/00 Q0996 BLU
EHEH - Eindhoven Rnlafb, Netherlands
Entfernung von der Station bis: SW 48 km
Aktualisierung: 22-01-2021 23:25
Bewölkt  
Bewölkt  
   Wind: SSO 5.6 km/h
Wind: SSO 5.6 km/h
Temperatur: 1°C
Gefühlt: -1°C
Taupunkt: -1°C
Luftfeuchte: 87%
Luftdruck: 996 hPa
Bewölkt: Bewölkt
Sichtbarkeit: More than 10 km
Bewölkung: Bewölkt 6096 m
EHEH 222225Z AUTO 16003KT 9999 OVC200 01/M01 Q0996 BLU
EHGR - Gilze-Rijen Rnla, Netherlands
Entfernung von der Station bis: WSW 70 km
Aktualisierung: 22-01-2021 23:25
Bewölkt  
Bewölkt  
   Wind: Süden 9.3 km/h
Wind: Süden 9.3 km/h
Temperatur: 1°C
Gefühlt: -2°C
Taupunkt: 0°C
Luftfeuchte: 93%
Luftdruck: 996 hPa
Bewölkt: Bewölkt
Sichtbarkeit: More than 10 km
Bewölkung: Bewölkt 6096 m
EHGR 222225Z AUTO 19005KT 160V230 9999 OVC200 01/00 Q0996 BLU
EBBL - Kleine-Brogel(Ba, Belgium
Entfernung von der Station bis: SSW 71 km
Aktualisierung: 20-01-2021 19:55
Nicht aktuell
Stark bewölkt  
Stark bewölkt  
   Wind: Süden 9.3 km/h
Wind: Süden 9.3 km/h
Temperatur: 9°C
Gefühlt: 8°C
Taupunkt: 2°C
Luftfeuchte: 62%
Luftdruck: 994 hPa
Bewölkt: Stark bewölkt
Sichtbarkeit: More than 10 km
Bewölkung: Teilweise bewölkt 4267.2 m,
Stark bewölkt 7010.4 m
EBBL 201855Z AUTO 18005KT 9999 SCT140/// BKN230/// 09/02 Q0994 BLU

Script entwickelt von  Saratoga-weather.org Angepasst für das Template von  Weerstation Leuven

Sie finden unser Wetter-Infos auch auf:

netzwerkwettercom

European Weather Network

WeatherCloud

Weather Underground

AWEKAS

Citizen Weather Observer Program (CWOP)

HAMweather, WeatherForYou, PWS Weather

Von uns verwendete Ausrüstung:

Wetterstation
Davis VP2

Wetterprogramm
Weather Display

Davis VP2

Weather Display